Time;durP1;ratioP1;P1;durP2;ratioP2;P2;SDS_P1;SDS_P2;PMS_P1;PMS_P2;Temp;Humidity;BMP_temperature;BMP_pressure;BME280_temperature;BME280_humidity;BME280_pressure;Samples;Min_cycle;Max_cycle;Signal;HPM_P1;HPM_P2
2022/12/27 00:00:46;;;;;;;23.20;7.43;;;;;;;1.43;100.00;102025.06;5125249;27;20501;-71
2022/12/27 00:03:11;;;;;;;22.48;7.10;;;;;;;1.47;100.00;102027.97;5125021;27;20389;-71
2022/12/27 00:05:37;;;;;;;21.95;7.07;;;;;;;1.47;100.00;102030.59;5124229;27;20405;-71
2022/12/27 00:08:02;;;;;;;21.02;6.85;;;;;;;1.51;100.00;102036.88;5126150;27;20055;-71
2022/12/27 00:10:27;;;;;;;22.23;7.35;;;;;;;1.56;100.00;102043.28;5123041;27;20047;-71
2022/12/27 00:12:53;;;;;;;22.27;7.50;;;;;;;1.50;100.00;102040.28;5126378;27;20479;-70
2022/12/27 00:15:18;;;;;;;21.58;7.15;;;;;;;1.44;100.00;102046.00;5123793;27;20487;-70
2022/12/27 00:17:44;;;;;;;22.02;7.40;;;;;;;1.51;100.00;102042.09;5124688;27;20032;-70
2022/12/27 00:20:10;;;;;;;21.70;7.13;;;;;;;1.50;100.00;102040.28;5125116;27;20080;-70
2022/12/27 00:22:35;;;;;;;20.80;7.15;;;;;;;1.61;100.00;102041.81;5123242;27;20028;-70
2022/12/27 00:25:01;;;;;;;22.38;7.05;;;;;;;1.69;100.00;102037.97;5125979;27;20039;-70
2022/12/27 00:27:26;;;;;;;20.63;6.65;;;;;;;1.67;100.00;102044.78;5122455;27;20490;-70
2022/12/27 00:29:51;;;;;;;20.90;6.60;;;;;;;1.76;100.00;102039.22;5125508;27;20050;-70
2022/12/27 00:32:17;;;;;;;21.05;6.88;;;;;;;1.76;100.00;102040.94;5105527;27;20050;-70
2022/12/27 00:34:42;;;;;;;20.13;6.90;;;;;;;1.67;100.00;102044.78;5124035;27;20543;-70
2022/12/27 00:37:07;;;;;;;21.70;7.15;;;;;;;1.68;100.00;102048.31;5106870;27;20466;-70
2022/12/27 00:39:33;;;;;;;20.92;7.28;;;;;;;1.68;100.00;102041.38;5104523;28;20028;-70
2022/12/27 00:41:58;;;;;;;21.23;6.90;;;;;;;1.73;100.00;102039.97;5107640;27;20019;-71
2022/12/27 00:44:24;;;;;;;22.33;6.80;;;;;;;1.72;100.00;102045.97;5104135;28;20038;-70
2022/12/27 00:46:49;;;;;;;23.40;7.13;;;;;;;1.72;100.00;102058.13;5124962;27;20064;-70
2022/12/27 00:49:14;;;;;;;22.95;7.25;;;;;;;1.69;100.00;102045.81;5123508;27;20046;-70
2022/12/27 00:51:40;;;;;;;20.58;6.40;;;;;;;1.68;100.00;102058.75;5122726;27;20377;-71
2022/12/27 00:54:06;;;;;;;21.92;6.90;;;;;;;1.65;100.00;102056.84;5125148;27;20114;-71
2022/12/27 00:56:31;;;;;;;23.48;7.10;;;;;;;1.74;100.00;102065.22;5103956;28;20484;-70
2022/12/27 00:59:02;;;;;;;22.20;6.95;;;;;;;1.79;100.00;102061.97;5125781;27;20054;-70
2022/12/27 01:01:30;;;;;;;21.85;6.72;;;;;;;1.78;100.00;102068.00;5118190;27;20024;-70
2022/12/27 01:03:56;;;;;;;22.70;7.15;;;;;;;1.74;100.00;102077.34;5117674;27;20124;-70
2022/12/27 01:06:24;;;;;;;20.02;6.30;;;;;;;1.72;100.00;102073.78;5125010;27;20027;-71
2022/12/27 01:08:50;;;;;;;22.30;6.22;;;;;;;1.81;100.00;102074.31;5122934;27;20109;-71
2022/12/27 01:11:17;;;;;;;21.33;6.53;;;;;;;1.89;100.00;102077.38;5123739;27;20104;-70
2022/12/27 01:13:43;;;;;;;22.98;6.80;;;;;;;1.83;100.00;102074.41;5123586;27;20473;-70
2022/12/27 01:16:20;;;;;;;21.50;6.63;;;;;;;1.76;100.00;102077.44;5122852;27;20055;-71
2022/12/27 01:18:47;;;;;;;22.50;6.78;;;;;;;1.72;100.00;102079.88;5123192;27;20034;-70
2022/12/27 01:21:15;;;;;;;23.35;6.75;;;;;;;1.76;100.00;102086.16;5123649;27;20050;-70
2022/12/27 01:23:41;;;;;;;23.27;7.03;;;;;;;1.69;100.00;102089.19;5124207;27;20102;-71
2022/12/27 01:26:10;;;;;;;22.40;6.90;;;;;;;1.66;100.00;102089.94;5122132;27;20075;-71
2022/12/27 01:28:37;;;;;;;21.08;6.35;;;;;;;1.73;100.00;102088.59;5124666;27;20094;-70
2022/12/27 01:31:06;;;;;;;21.98;6.40;;;;;;;1.77;100.00;102094.91;5122049;27;20030;-70
2022/12/27 01:33:32;;;;;;;20.85;6.55;;;;;;;1.71;100.00;102088.50;5106895;28;20110;-70
2022/12/27 01:36:16;;;;;;;20.85;6.55;;;;;;;1.77;100.00;102089.69;5121495;28;20066;-70
2022/12/27 01:38:42;;;;;;;22.73;6.93;;;;;;;1.79;100.00;102102.03;5120894;28;20077;-70
2022/12/27 01:43:56;;;;;;;20.73;6.45;;;;;;;1.73;100.00;102097.31;5117702;28;20393;-70
2022/12/27 01:46:22;;;;;;;22.58;6.63;;;;;;;1.74;100.00;102104.31;5124464;28;20110;-70
2022/12/27 01:48:48;;;;;;;22.73;6.55;;;;;;;1.72;100.00;102100.72;5122588;28;20382;-70
2022/12/27 01:51:14;;;;;;;22.45;6.53;;;;;;;1.73;100.00;102106.84;5123036;28;20111;-71
2022/12/27 01:53:43;;;;;;;20.95;6.28;;;;;;;1.76;100.00;102111.34;5123702;28;20023;-71
2022/12/27 01:56:16;;;;;;;22.23;6.43;;;;;;;1.78;100.00;102117.53;5122380;28;20445;-71
2022/12/27 01:58:51;;;;;;;21.27;6.05;;;;;;;1.83;100.00;102119.63;5123348;28;20027;-70
2022/12/27 02:01:29;;;;;;;24.20;6.80;;;;;;;1.80;100.00;102131.59;5124262;27;20057;-71
2022/12/27 02:04:06;;;;;;;21.73;5.90;;;;;;;1.78;100.00;102130.56;5125696;27;20106;-71
2022/12/27 02:06:34;;;;;;;19.42;6.15;;;;;;;1.84;100.00;102131.88;5122190;27;20068;-71
2022/12/27 02:09:38;;;;;;;23.33;6.80;;;;;;;1.90;100.00;102132.22;5128733;27;20027;-71
2022/12/27 02:12:05;;;;;;;;;;;;;;;1.91;100.00;102130.53;5122621;27;20023;-70
2022/12/27 02:14:33;;;;;;;21.83;6.47;;;;;;;1.83;100.00;102126.56;5128910;27;20352;-71
2022/12/27 02:17:12;;;;;;;22.80;6.93;;;;;;;1.80;100.00;102139.41;5121167;27;20462;-70
2022/12/27 02:19:40;;;;;;;21.67;6.20;;;;;;;1.85;100.00;102132.75;5123332;27;20484;-70
2022/12/27 02:22:24;;;;;;;22.35;6.55;;;;;;;1.85;100.00;102132.75;5128204;27;20022;-70
2022/12/27 02:25:10;;;;;;;22.70;6.30;;;;;;;1.77;100.00;102136.63;5127635;27;20051;-70
2022/12/27 02:27:54;;;;;;;20.63;6.35;;;;;;;1.75;100.00;102133.94;5120844;27;20498;-71
2022/12/27 02:30:19;;;;;;;21.75;6.03;;;;;;;1.84;100.00;102126.66;5126615;27;20023;-70
2022/12/27 02:32:55;;;;;;;22.50;6.30;;;;;;;1.79;100.00;102142.81;5125391;27;20497;-70
2022/12/27 02:35:30;;;;;;;21.77;6.05;;;;;;;1.83;100.00;102140.47;5125844;27;20019;-71
2022/12/27 02:38:05;;;;;;;22.80;6.60;;;;;;;1.89;100.00;102142.56;5128322;27;20534;-70
2022/12/27 02:54:51;;;;;;;21.42;5.90;;;;;;;2.02;100.00;102144.22;5121226;27;20066;-70
2022/12/27 02:57:26;;;;;;;20.85;5.90;;;;;;;1.93;100.00;102141.94;5125907;27;20027;-70
2022/12/27 03:03:23;;;;;;;21.23;5.60;;;;;;;1.93;100.00;102147.16;5123754;27;20084;-70
2022/12/27 03:09:05;;;;;;;20.95;6.00;;;;;;;2.03;100.00;102128.66;5126611;27;20536;-70
2022/12/27 03:17:39;;;;;;;21.08;5.10;;;;;;;1.98;100.00;102135.31;5125053;27;20115;-70
2022/12/27 03:25:47;;;;;;;21.73;5.20;;;;;;;2.12;100.00;102153.50;5123894;27;20094;-70
2022/12/27 03:39:47;;;;;;;20.35;5.35;;;;;;;2.11;100.00;102169.94;5121467;27;20088;-70
2022/12/27 03:45:05;;;;;;;20.40;5.22;;;;;;;1.83;100.00;102179.59;5120585;27;20122;-70
2022/12/27 03:47:37;;;;;;;20.88;5.30;;;;;;;1.83;100.00;102182.22;5127062;27;20024;-70
2022/12/27 03:50:22;;;;;;;20.05;5.28;;;;;;;1.87;100.00;102184.19;5119863;27;20419;-70
2022/12/27 03:52:54;;;;;;;21.45;5.80;;;;;;;1.79;100.00;102187.16;5124946;27;20031;-70
2022/12/27 03:55:20;;;;;;;21.52;5.80;;;;;;;1.81;100.00;102189.06;5125628;27;20061;-70
2022/12/27 03:57:46;;;;;;;21.92;5.60;;;;;;;1.82;100.00;102184.72;5125010;27;20062;-70
2022/12/27 04:00:12;;;;;;;23.38;5.80;;;;;;;1.79;100.00;102187.16;5124536;27;20030;-70
2022/12/27 04:02:37;;;;;;;23.05;6.03;;;;;;;1.71;100.00;102190.19;5125759;27;20028;-70
2022/12/27 04:05:03;;;;;;;20.85;5.57;;;;;;;1.69;100.00;102183.97;5105056;28;20382;-70
2022/12/27 04:07:28;;;;;;;21.75;5.90;;;;;;;1.71;100.00;102191.91;5118856;27;20032;-70
2022/12/27 04:34:44;;;;;;;23.02;5.60;;;;;;;1.63;100.00;102188.81;5118734;27;20058;-70
2022/12/27 04:37:13;;;;;;;22.40;5.40;;;;;;;1.68;100.00;102186.50;5120654;27;20137;-70
2022/12/27 04:39:38;;;;;;;19.65;5.30;;;;;;;1.60;100.00;102193.81;5125325;27;20027;-70
2022/12/27 04:55:58;;;;;;;19.88;5.55;;;;;;;1.47;100.00;102225.13;5122371;27;20042;-71
2022/12/27 04:58:24;;;;;;;22.85;6.45;;;;;;;1.59;100.00;102225.94;5124859;27;20031;-70
2022/12/27 05:03:34;;;;;;;22.20;6.13;;;;;;;1.61;100.00;102215.59;5118752;27;20455;-70
2022/12/27 05:06:00;;;;;;;21.45;5.80;;;;;;;1.57;100.00;102219.69;5125417;27;20106;-71
2022/12/27 05:13:58;;;;;;;23.45;6.13;;;;;;;1.37;100.00;102215.88;5122299;27;20091;-71
2022/12/27 05:16:24;;;;;;;22.48;5.95;;;;;;;1.33;100.00;102219.97;5124695;27;20053;-70
2022/12/27 05:18:51;;;;;;;23.08;5.72;;;;;;;1.31;100.00;102213.75;5122954;27;20015;-70
2022/12/27 05:21:17;;;;;;;21.88;5.95;;;;;;;1.32;100.00;102227.69;5123757;27;20031;-71
2022/12/27 05:26:27;;;;;;;23.95;6.70;;;;;;;1.43;100.00;102226.66;5124790;28;20132;-70
2022/12/27 05:28:54;;;;;;;22.00;6.00;;;;;;;1.52;100.00;102224.63;5122401;27;20424;-70
2022/12/27 05:31:22;;;;;;;23.80;6.50;;;;;;;1.72;100.00;102230.22;5123766;27;20093;-70
2022/12/27 05:33:48;;;;;;;23.05;6.40;;;;;;;1.92;100.00;102245.38;5123422;27;20027;-72
2022/12/27 05:36:13;;;;;;;22.42;6.60;;;;;;;1.91;100.00;102247.91;5122231;27;20028;-71
2022/12/27 05:38:39;;;;;;;23.65;6.50;;;;;;;1.92;100.00;102254.91;5105972;28;20481;-72
2022/12/27 05:41:05;;;;;;;21.67;6.50;;;;;;;1.85;100.00;102256.25;5121798;28;20031;-71
2022/12/27 05:43:32;;;;;;;26.23;7.00;;;;;;;1.83;100.00;102260.44;5124985;28;20431;-71
2022/12/27 05:46:10;;;;;;;23.63;7.03;;;;;;;1.78;100.00;102271.38;5121723;28;20108;-71
2022/12/27 05:48:36;;;;;;;23.17;7.05;;;;;;;1.67;100.00;102265.50;5118469;28;20521;-71
2022/12/27 05:51:06;;;;;;;24.20;6.72;;;;;;;1.60;100.00;102277.25;5125017;28;20024;-72
2022/12/27 05:53:32;;;;;;;24.50;6.68;;;;;;;1.55;100.00;102268.25;5117481;28;20034;-71
2022/12/27 05:55:58;;;;;;;23.80;6.90;;;;;;;1.49;100.00;102283.50;5124860;28;20023;-71
2022/12/27 05:58:24;;;;;;;25.50;7.32;;;;;;;1.37;100.00;102283.63;5122357;28;20019;-71
2022/12/27 06:00:49;;;;;;;26.92;7.38;;;;;;;1.30;100.00;102290.13;5123379;28;20055;-72
2022/12/27 06:03:15;;;;;;;23.48;7.28;;;;;;;1.28;100.00;102299.56;5105314;28;20045;-72
2022/12/27 06:05:40;;;;;;;25.25;7.25;;;;;;;1.23;100.00;102295.72;5122056;28;20440;-71
2022/12/27 06:08:06;;;;;;;22.48;7.10;;;;;;;1.21;100.00;102289.53;5106265;28;20023;-72
2022/12/27 06:10:32;;;;;;;25.08;7.35;;;;;;;1.18;100.00;102290.22;5121287;28;20073;-72
2022/12/27 06:13:01;;;;;;;25.30;7.30;;;;;;;1.14;100.00;102284.72;5124231;28;20031;-71
2022/12/27 06:15:26;;;;;;;26.10;7.45;;;;;;;1.08;100.00;102284.28;5121804;28;20031;-71
2022/12/27 06:17:52;;;;;;;25.25;7.40;;;;;;;1.03;100.00;102290.13;5123767;28;20024;-71
2022/12/27 06:20:17;;;;;;;26.83;7.68;;;;;;;1.07;100.00;102288.59;5123124;28;20496;-72
2022/12/27 06:22:44;;;;;;;24.75;7.95;;;;;;;1.09;100.00;102291.31;5122465;28;20027;-72
2022/12/27 06:25:09;;;;;;;24.77;7.95;;;;;;;1.14;100.00;102282.13;5124051;28;20050;-72
2022/12/27 06:27:35;;;;;;;24.08;8.10;;;;;;;1.13;100.00;102277.69;5120948;28;20048;-72
2022/12/27 06:30:00;;;;;;;23.77;7.25;;;;;;;1.20;100.00;102283.41;5106191;28;20019;-71
2022/12/27 06:32:26;;;;;;;24.92;7.40;;;;;;;1.19;100.00;102284.22;5121946;28;20032;-71
2022/12/27 06:34:51;;;;;;;26.92;7.65;;;;;;;1.17;100.00;102285.81;5123129;28;20038;-71
2022/12/27 06:37:17;;;;;;;29.05;7.70;;;;;;;1.07;100.00;102287.72;5122881;28;20031;-71
2022/12/27 06:39:42;;;;;;;24.08;7.57;;;;;;;1.11;100.00;102288.03;5122203;28;20071;-71
2022/12/27 06:42:08;;;;;;;24.35;7.68;;;;;;;1.02;100.00;102282.19;5124054;28;20038;-71
2022/12/27 06:44:33;;;;;;;26.30;8.00;;;;;;;1.02;100.00;102290.00;5121006;28;20416;-71
2022/12/27 06:46:59;;;;;;;25.38;7.55;;;;;;;0.94;100.00;102289.50;5124159;27;20027;-71
2022/12/27 06:49:24;;;;;;;24.73;7.53;;;;;;;0.87;100.00;102289.88;5097601;27;20034;-70
2022/12/27 06:51:50;;;;;;;25.30;8.00;;;;;;;0.93;100.00;102290.28;5123267;27;20071;-70
2022/12/27 06:54:15;;;;;;;27.02;8.20;;;;;;;0.94;100.00;102292.09;5121812;27;20031;-70
2022/12/27 06:56:41;;;;;;;25.77;8.10;;;;;;;0.91;100.00;102289.28;5104078;28;20027;-70
2022/12/27 06:59:07;;;;;;;26.35;8.35;;;;;;;0.93;100.00;102284.19;5116977;27;20024;-71
2022/12/27 07:01:32;;;;;;;25.38;8.45;;;;;;;0.90;100.00;102289.19;5123770;27;20031;-71
2022/12/27 07:03:59;;;;;;;28.75;8.75;;;;;;;0.89;100.00;102277.88;5121302;27;20476;-71
2022/12/27 07:06:27;;;;;;;28.17;8.73;;;;;;;0.88;100.00;102289.09;5120526;27;20027;-70
2022/12/27 07:08:53;;;;;;;25.77;8.88;;;;;;;0.86;100.00;102294.19;5101626;27;20580;-72
2022/12/27 07:11:20;;;;;;;27.17;8.63;;;;;;;0.83;100.00;102294.00;5121913;27;20031;-70
2022/12/27 07:13:48;;;;;;;27.13;8.98;;;;;;;0.83;100.00;102296.59;5101947;27;20540;-71
2022/12/27 07:16:16;;;;;;;27.50;9.18;;;;;;;0.76;100.00;102299.59;5117960;27;20089;-69
2022/12/27 07:18:42;;;;;;;25.75;8.95;;;;;;;0.74;100.00;102302.88;5116163;27;20019;-70
2022/12/27 07:21:10;;;;;;;29.40;9.30;;;;;;;0.76;100.00;102309.09;5098029;28;20447;-70
2022/12/27 07:23:36;;;;;;;26.55;9.77;;;;;;;0.80;100.00;102305.88;5119137;27;20031;-70
2022/12/27 07:26:15;;;;;;;28.45;9.98;;;;;;;0.72;100.00;102314.91;5115636;27;20486;-70
2022/12/27 07:28:41;;;;;;;29.17;10.13;;;;;;;0.69;100.00;102311.28;5120066;27;20386;-70
2022/12/27 07:31:15;;;;;;;28.52;10.20;;;;;;;0.75;100.00;102315.09;5101067;27;20024;-68
2022/12/27 07:33:41;;;;;;;28.75;10.35;;;;;;;0.79;100.00;102317.13;5122102;27;20027;-69
2022/12/27 07:36:12;;;;;;;28.88;10.45;;;;;;;0.90;100.00;102323.94;5117738;27;20023;-69
2022/12/27 07:38:38;;;;;;;27.63;10.75;;;;;;;0.88;100.00;102322.94;5117085;27;20059;-69
2022/12/27 07:41:03;;;;;;;25.15;10.38;;;;;;;0.84;100.00;102316.59;5105152;27;20104;-69
2022/12/27 07:43:33;;;;;;;26.95;9.90;;;;;;;0.88;100.00;102320.34;5102992;28;20036;-69
2022/12/27 07:46:12;;;;;;;28.48;10.93;;;;;;;0.94;100.00;102312.94;5118896;27;20027;-71
2022/12/27 07:48:38;;;;;;;28.38;10.93;;;;;;;0.98;100.00;102314.06;5119296;27;20048;-70
2022/12/27 07:51:05;;;;;;;30.15;11.88;;;;;;;1.02;100.00;102321.25;5116752;27;20024;-69
2022/12/27 07:53:30;;;;;;;28.23;10.98;;;;;;;0.99;100.00;102316.75;5119006;27;20118;-69
2022/12/27 07:55:56;;;;;;;28.30;11.50;;;;;;;1.00;100.00;102317.66;5117513;27;20079;-69
2022/12/27 07:58:22;;;;;;;30.75;11.75;;;;;;;1.04;100.00;102325.75;5098530;27;20052;-68
2022/12/27 08:00:50;;;;;;;28.35;10.95;;;;;;;1.06;100.00;102332.78;5115398;27;20131;-70
2022/12/27 08:03:16;;;;;;;30.27;11.75;;;;;;;1.09;100.00;102325.19;5121829;27;20103;-70
2022/12/27 08:05:46;;;;;;;30.23;11.60;;;;;;;1.10;100.00;102337.41;5117618;27;20032;-70
2022/12/27 08:08:15;;;;;;;31.38;11.80;;;;;;;1.12;100.00;102334.13;5121938;27;20057;-70
2022/12/27 08:10:40;;;;;;;29.58;11.68;;;;;;;1.23;100.00;102331.31;5118386;27;20016;-71
2022/12/27 08:13:05;;;;;;;30.88;12.20;;;;;;;1.25;100.00;102338.41;5116995;27;20034;-71
2022/12/27 08:15:31;;;;;;;28.45;11.95;;;;;;;1.29;100.00;102340.41;5118705;27;20082;-72
2022/12/27 08:17:56;;;;;;;28.75;12.52;;;;;;;1.32;100.00;102348.44;5121901;27;20062;-73
2022/12/27 08:20:21;;;;;;;27.40;12.00;;;;;;;1.39;100.00;102335.00;5100382;28;20046;-72
2022/12/27 08:22:47;;;;;;;31.85;12.52;;;;;;;1.46;100.00;102351.06;5121686;27;20032;-72
2022/12/27 08:25:12;;;;;;;28.58;12.45;;;;;;;1.53;100.00;102350.63;5121041;27;20043;-71
2022/12/27 08:27:37;;;;;;;31.42;13.65;;;;;;;1.62;100.00;102355.59;5117489;27;20044;-72
2022/12/27 08:30:03;;;;;;;29.58;12.93;;;;;;;1.67;100.00;102357.66;5115241;27;20549;-71
2022/12/27 08:32:29;;;;;;;31.58;13.05;;;;;;;1.74;100.00;102356.34;5116090;27;20117;-72
2022/12/27 08:34:54;;;;;;;29.38;12.82;;;;;;;1.72;100.00;102361.47;5119931;27;20038;-72
2022/12/27 08:37:19;;;;;;;30.15;12.65;;;;;;;1.74;100.00;102365.06;5118935;27;20076;-70
2022/12/27 08:39:45;;;;;;;28.60;11.45;;;;;;;1.70;100.00;102359.56;5121120;27;20028;-73
2022/12/27 08:42:12;;;;;;;30.08;12.32;;;;;;;1.70;100.00;102357.88;5119708;27;20063;-70
2022/12/27 08:44:37;;;;;;;28.65;11.93;;;;;;;1.72;100.00;102356.25;5118644;27;20424;-70
2022/12/27 08:47:03;;;;;;;27.95;11.18;;;;;;;1.71;100.00;102346.63;5118501;27;20027;-70
2022/12/27 08:49:29;;;;;;;28.83;12.27;;;;;;;1.76;100.00;102340.81;5114770;27;20032;-69
2022/12/27 08:51:54;;;;;;;28.63;12.88;;;;;;;1.82;100.00;102341.19;5121007;27;20055;-70
2022/12/27 08:54:20;;;;;;;29.80;12.15;;;;;;;1.91;100.00;102337.47;5117382;27;20031;-71
2022/12/27 08:56:45;;;;;;;29.35;12.90;;;;;;;1.95;100.00;102342.88;5118450;27;20028;-73
2022/12/27 08:59:11;;;;;;;27.95;12.18;;;;;;;1.98;100.00;102341.38;5119203;27;20023;-73
2022/12/27 09:01:36;;;;;;;28.90;12.32;;;;;;;2.11;100.00;102345.63;5118334;27;20462;-73
2022/12/27 09:04:01;;;;;;;28.25;12.10;;;;;;;2.19;100.00;102347.03;5119992;27;20035;-74
2022/12/27 09:06:27;;;;;;;28.10;12.13;;;;;;;2.25;100.00;102349.13;5119548;27;20023;-71
2022/12/27 09:08:53;;;;;;;28.92;11.60;;;;;;;2.30;100.00;102355.56;5121759;27;20116;-73
2022/12/27 09:11:24;;;;;;;27.27;11.80;;;;;;;2.34;100.00;102339.25;5124376;27;20023;-74
2022/12/27 09:13:50;;;;;;;29.02;11.68;;;;;;;2.40;100.00;102339.66;5117663;27;20031;-73
2022/12/27 09:16:21;;;;;;;24.48;10.02;;;;;;;2.45;100.00;102347.75;5124608;27;20031;-72
2022/12/27 09:18:49;;;;;;;25.10;10.20;;;;;;;2.52;100.00;102347.31;5120854;27;20028;-72
2022/12/27 09:21:16;;;;;;;25.65;10.15;;;;;;;2.58;100.00;102350.31;5124529;27;20031;-74
2022/12/27 09:23:42;;;;;;;24.25;9.30;;;;;;;2.65;100.00;102351.59;5123224;27;20373;-73
2022/12/27 09:26:13;;;;;;;24.75;9.10;;;;;;;2.63;100.00;102347.97;5123020;27;20115;-73
2022/12/27 09:28:39;;;;;;;26.20;9.32;;;;;;;2.69;100.00;102343.09;5123687;27;20027;-74
2022/12/27 09:31:05;;;;;;;24.83;8.90;;;;;;;2.78;100.00;102350.59;5122804;27;20023;-73
2022/12/27 09:33:31;;;;;;;23.48;8.30;;;;;;;2.92;100.00;102356.66;5124290;28;20039;-74
2022/12/27 09:36:05;;;;;;;22.23;7.95;;;;;;;2.88;100.00;102357.28;5121829;28;20031;-74
2022/12/27 09:38:31;;;;;;;23.55;8.05;;;;;;;2.95;100.00;102357.72;5124329;28;20064;-75
2022/12/27 09:41:00;;;;;;;23.30;8.00;;;;;;;3.07;100.00;102367.13;5121688;28;20028;-74
2022/12/27 09:44:04;;;;;;;23.75;7.55;;;;;;;3.13;100.00;102363.16;5124855;28;20076;-75
2022/12/27 09:46:58;;;;;;;23.48;7.57;;;;;;;3.29;100.00;102354.50;5105426;28;20116;-78
2022/12/27 09:49:32;;;;;;;22.60;7.45;;;;;;;3.55;100.00;102356.81;5114754;28;20494;-79
2022/12/27 09:52:18;;;;;;;22.40;7.57;;;;;;;3.57;100.00;102365.63;5118434;28;20024;-78
2022/12/27 09:54:43;;;;;;;22.15;7.10;;;;;;;3.61;100.00;102362.38;5115305;28;20067;-78
2022/12/27 09:57:26;;;;;;;21.30;7.20;;;;;;;3.80;100.00;102365.25;5098764;28;20505;-72
2022/12/27 09:59:57;;;;;;;19.25;6.68;;;;;;;3.89;100.00;102359.63;5106014;28;20478;-73
2022/12/27 10:02:25;;;;;;;20.63;7.00;;;;;;;4.00;100.00;102366.38;5117328;28;20058;-72
2022/12/27 10:04:52;;;;;;;20.98;6.53;;;;;;;4.11;100.00;102359.09;5096548;28;20020;-73
2022/12/27 10:07:26;;;;;;;22.60;7.13;;;;;;;4.18;100.00;102363.84;5122785;28;20032;-73
2022/12/27 10:10:16;;;;;;;23.55;7.03;;;;;;;4.29;100.00;102371.38;5118029;28;20030;-74
2022/12/27 10:13:04;;;;;;;20.63;6.22;;;;;;;4.34;100.00;102370.81;5116417;28;20027;-77
2022/12/27 10:15:48;;;;;;;21.08;6.63;;;;;;;4.38;100.00;102371.88;5116764;28;20481;-73
2022/12/27 10:18:19;;;;;;;20.77;6.45;;;;;;;4.53;100.00;102374.44;5095242;28;20532;-72
2022/12/27 10:20:48;;;;;;;20.35;6.20;;;;;;;4.76;100.00;102375.66;5115675;28;20068;-73
2022/12/27 10:23:21;;;;;;;20.95;6.28;;;;;;;4.77;100.00;102361.72;5120654;27;20130;-73
2022/12/27 10:25:52;;;;;;;21.10;6.60;;;;;;;4.84;100.00;102368.19;5122937;27;20366;-72
2022/12/27 10:28:32;;;;;;;20.17;6.20;;;;;;;4.95;100.00;102345.13;5102209;27;20037;-73
2022/12/27 10:31:02;;;;;;;19.35;5.95;;;;;;;5.20;100.00;102357.78;5120501;27;20063;-73
2022/12/27 10:33:30;;;;;;;19.52;5.70;;;;;;;5.63;100.00;102369.50;5119976;27;20027;-73
2022/12/27 10:35:57;;;;;;;19.48;5.55;;;;;;;5.88;100.00;102375.13;5125025;27;20393;-75
2022/12/27 10:38:23;;;;;;;19.98;5.15;;;;;;;5.94;100.00;102362.28;5120536;27;20492;-73
2022/12/27 10:41:26;;;;;;;19.45;5.18;;;;;;;6.18;100.00;102361.66;5120707;27;20031;-74
2022/12/27 10:43:53;;;;;;;18.92;5.45;;;;;;;6.61;100.00;102357.47;5120990;27;20028;-75
2022/12/27 10:46:22;;;;;;;19.70;5.30;;;;;;;6.96;100.00;102360.75;5128203;27;20033;-73
2022/12/27 10:49:00;;;;;;;18.88;5.10;;;;;;;7.24;100.00;102352.31;5124750;27;20028;-74
2022/12/27 10:51:33;;;;;;;20.17;5.30;;;;;;;7.24;100.00;102362.84;5121455;27;20027;-72
2022/12/27 10:54:10;;;;;;;20.60;5.30;;;;;;;7.29;100.00;102366.53;5127240;27;20485;-72
2022/12/27 10:56:40;;;;;;;19.02;5.22;;;;;;;7.74;100.00;102364.88;5126401;27;20025;-74
2022/12/27 10:59:22;;;;;;;18.92;4.97;;;;;;;7.40;100.00;102374.03;5126281;27;20031;-73
2022/12/27 11:01:59;;;;;;;19.80;5.32;;;;;;;6.89;100.00;102378.00;5120412;27;20381;-70
2022/12/27 11:04:25;;;;;;;18.73;5.28;;;;;;;6.55;100.00;102368.63;5120173;27;20028;-70
2022/12/27 11:07:10;;;;;;;20.45;5.60;;;;;;;6.34;100.00;102370.28;5122812;27;20100;-72
2022/12/27 11:09:41;;;;;;;18.33;4.88;;;;;;;6.14;100.00;102354.47;5119657;27;20072;-72
2022/12/27 11:12:11;;;;;;;18.92;5.13;;;;;;;6.01;100.00;102367.84;5120023;27;20019;-72
2022/12/27 11:14:37;;;;;;;19.95;5.18;;;;;;;5.96;100.00;102354.47;5099156;27;20038;-72
2022/12/27 11:17:08;;;;;;;18.65;5.07;;;;;;;5.89;100.00;102358.53;5118858;27;20036;-72
2022/12/27 11:19:35;;;;;;;19.98;5.70;;;;;;;5.89;100.00;102353.28;5122424;27;20063;-72
2022/12/27 11:22:04;;;;;;;19.20;5.25;;;;;;;5.92;100.00;102352.53;5119372;27;20035;-72
2022/12/27 11:24:30;;;;;;;19.17;5.35;;;;;;;5.92;100.00;102348.16;5121750;27;20028;-72
2022/12/27 11:26:58;;;;;;;20.80;5.43;;;;;;;6.01;100.00;102341.59;5120996;27;20149;-72
2022/12/27 11:29:27;;;;;;;22.75;6.07;;;;;;;6.06;100.00;102345.34;5118360;27;20446;-72
2022/12/27 11:31:54;;;;;;;19.60;5.68;;;;;;;6.00;100.00;102345.03;5120890;27;20028;-72
2022/12/27 11:34:36;;;;;;;19.95;5.70;;;;;;;5.99;100.00;102352.03;5124046;27;20037;-72
2022/12/27 11:37:13;;;;;;;18.50;5.15;;;;;;;5.91;100.00;102354.28;5120445;27;20390;-72
2022/12/27 11:39:44;;;;;;;17.67;5.32;;;;;;;5.89;100.00;102341.91;5121599;27;20543;-72
2022/12/27 11:42:26;;;;;;;19.98;5.22;;;;;;;5.86;100.00;102347.88;5126126;27;20027;-72
2022/12/27 11:45:16;;;;;;;19.73;5.20;;;;;;;5.81;100.00;102359.00;5126158;27;20023;-72
2022/12/27 11:47:50;;;;;;;18.40;5.07;;;;;;;5.81;100.00;102343.25;5122187;27;20077;-72
2022/12/27 11:50:26;;;;;;;19.05;5.30;;;;;;;5.79;100.00;102342.28;5118508;27;20047;-69
2022/12/27 11:53:33;;;;;;;19.23;5.13;;;;;;;5.79;100.00;102340.53;5115212;27;20028;-73
2022/12/27 11:56:20;;;;;;;18.55;5.13;;;;;;;5.75;100.00;102334.28;5113302;27;20044;-70
2022/12/27 11:59:19;;;;;;;18.02;4.90;;;;;;;5.68;100.00;102333.88;5117676;27;20027;-70
2022/12/27 12:02:02;;;;;;;19.90;5.22;;;;;;;5.64;100.00;102337.22;5118632;27;20035;-69
2022/12/27 12:04:56;;;;;;;18.75;5.43;;;;;;;5.67;100.00;102324.22;5119970;27;20065;-69
2022/12/27 12:07:27;;;;;;;19.90;5.20;;;;;;;5.56;100.00;102331.56;5115338;27;20099;-71
2022/12/27 12:10:00;;;;;;;19.10;5.20;;;;;;;5.58;100.00;102325.56;5119624;27;20080;-71
2022/12/27 12:12:50;;;;;;;18.40;4.88;;;;;;;5.55;100.00;102320.19;5119591;27;20062;-70
2022/12/27 12:15:43;;;;;;;19.70;5.60;;;;;;;5.44;100.00;102305.66;5117064;27;20027;-70
2022/12/27 12:18:15;;;;;;;;;;;;;;;5.56;100.00;102305.34;5114773;27;20168;-69
2022/12/27 12:20:40;;;;;;;18.75;5.25;;;;;;;5.47;100.00;102307.53;5117029;27;19915;-71
2022/12/27 12:23:11;;;;;;;18.77;5.30;;;;;;;5.50;100.00;102300.69;5114148;27;20091;-70
2022/12/27 12:25:59;;;;;;;19.85;5.40;;;;;;;5.56;100.00;102301.00;5115896;27;20035;-71
2022/12/27 12:29:00;;;;;;;19.20;5.20;;;;;;;5.59;100.00;102308.09;5114051;27;20053;-71
2022/12/27 12:31:40;;;;;;;19.17;5.15;;;;;;;5.68;100.00;102315.50;5062274;27;20035;-71
2022/12/27 12:34:30;;;;;;;20.35;5.07;;;;;;;5.80;100.00;102305.63;5116398;27;20084;-72
2022/12/27 12:37:26;;;;;;;19.17;5.10;;;;;;;5.83;100.00;102299.63;5117089;27;20069;-71
2022/12/27 12:40:16;;;;;;;19.27;5.35;;;;;;;5.81;100.00;102289.06;5108936;27;20023;-73
2022/12/27 12:43:17;;;;;;;17.98;5.13;;;;;;;5.72;100.00;102293.84;5110533;27;20020;-70
2022/12/27 12:45:48;;;;;;;20.17;5.35;;;;;;;5.62;100.00;102289.00;5035517;28;20041;-70
2022/12/27 12:48:46;;;;;;;20.83;5.35;;;;;;;5.64;100.00;102283.00;5113842;27;20024;-72
2022/12/27 12:51:36;;;;;;;19.60;5.40;;;;;;;5.57;100.00;102284.41;5113711;27;20059;-70
2022/12/27 12:54:39;;;;;;;19.52;5.78;;;;;;;5.66;100.00;102259.44;5093929;27;20454;-70
2022/12/27 12:57:13;;;;;;;19.90;5.22;;;;;;;5.58;100.00;102257.38;5108353;27;20036;-72
2022/12/27 13:00:03;;;;;;;19.25;5.38;;;;;;;5.62;100.00;102258.44;5101609;27;20027;-74
2022/12/27 13:02:28;;;;;;;18.23;5.03;;;;;;;5.71;100.00;102248.34;5114833;27;20055;-74
2022/12/27 13:05:10;;;;;;;18.60;4.85;;;;;;;5.92;100.00;102237.03;5100190;28;20024;-71
2022/12/27 13:08:06;;;;;;;20.67;5.35;;;;;;;6.21;100.00;102235.75;5115540;27;20028;-71
2022/12/27 13:10:37;;;;;;;17.80;4.78;;;;;;;6.31;100.00;102236.19;5113768;27;20531;-70
2022/12/27 13:13:17;;;;;;;19.05;5.30;;;;;;;6.26;100.00;102225.44;5116184;27;20117;-70